Time;durP1;ratioP1;P1;durP2;ratioP2;P2;SDS_P1;SDS_P2;PMS_P1;PMS_P2;Temp;Humidity;BMP_temperature;BMP_pressure;BME280_temperature;BME280_humidity;BME280_pressure;Samples;Min_cycle;Max_cycle;Signal;HPM_P1;HPM_P2
2022/11/24 00:02:24;;;;;;;16.80;3.50;;;;;;;;;;5049975;28;20531;-70
2022/11/24 00:04:50;;;;;;;20.05;3.40;;;;;;;;;;5049551;28;20021;-70
2022/11/24 00:07:15;;;;;;;16.40;3.13;;;;;;;;;;5049987;28;20451;-71
2022/11/24 00:09:40;;;;;;;19.75;3.53;;;;;;;;;;5048408;28;20388;-71
2022/11/24 00:12:06;;;;;;;13.45;3.00;;;;;;;;;;5049282;28;20021;-70
2022/11/24 00:14:31;;;;;;;19.10;3.30;;;;;;;;;;5049560;28;20029;-71
2022/11/24 00:16:56;;;;;;;15.27;2.97;;;;;;;;;;5048170;28;20017;-71
2022/11/24 00:19:22;;;;;;;16.23;3.30;;;;;;;;;;5049382;28;20070;-72
2022/11/24 00:21:47;;;;;;;12.60;3.00;;;;;;;;;;5049827;28;20029;-71
2022/11/24 00:24:13;;;;;;;22.67;3.70;;;;;;;;;;5049584;28;20025;-71
2022/11/24 00:26:38;;;;;;;18.33;3.53;;;;;;;;;;5049532;28;20060;-71
2022/11/24 00:29:06;;;;;;;16.77;3.30;;;;;;;;;;5048963;28;20477;-71
2022/11/24 00:31:37;;;;;;;17.55;3.45;;;;;;;;;;5049526;28;20059;-71
2022/11/24 00:34:04;;;;;;;15.63;3.33;;;;;;;;;;5049134;28;20025;-72
2022/11/24 00:36:31;;;;;;;18.25;3.50;;;;;;;;;;5049315;28;20035;-72
2022/11/24 00:39:00;;;;;;;14.90;3.10;;;;;;;;;;5049504;28;20029;-71
2022/11/24 00:41:26;;;;;;;14.10;3.10;;;;;;;;;;5049551;28;20691;-71
2022/11/24 00:43:52;;;;;;;16.45;3.05;;;;;;;;;;5048671;28;20495;-71
2022/11/24 00:46:18;;;;;;;20.00;3.78;;;;;;;;;;5049250;28;20036;-71
2022/11/24 00:48:44;;;;;;;14.82;3.53;;;;;;;;;;5049071;28;20112;-71
2022/11/24 00:51:12;;;;;;;20.30;3.70;;;;;;;;;;5049069;28;20503;-71
2022/11/24 00:53:37;;;;;;;15.93;3.47;;;;;;;;;;5049164;28;20025;-71
2022/11/24 00:56:03;;;;;;;15.40;3.10;;;;;;;;;;5047708;28;20060;-71
2022/11/24 00:58:29;;;;;;;12.85;3.33;;;;;;;;;;5048741;28;20083;-71
2022/11/24 01:00:55;;;;;;;15.27;3.38;;;;;;;;;;5049192;28;20033;-71
2022/11/24 01:03:23;;;;;;;14.65;3.60;;;;;;;;;;5050372;28;20112;-71
2022/11/24 01:05:48;;;;;;;17.77;3.33;;;;;;;;;;5048889;28;20056;-71
2022/11/24 01:08:14;;;;;;;16.42;3.28;;;;;;;;;;5050384;28;20071;-71
2022/11/24 01:10:39;;;;;;;13.27;2.83;;;;;;;;;;5049048;28;20104;-71
2022/11/24 01:13:05;;;;;;;11.38;2.60;;;;;;;;;;5048991;28;20112;-71
2022/11/24 01:15:30;;;;;;;14.30;3.05;;;;;;;;;;5048715;28;20086;-71
2022/11/24 01:17:56;;;;;;;16.35;2.65;;;;;;;;;;5052874;28;20036;-71
2022/11/24 01:20:22;;;;;;;13.25;2.78;;;;;;;;;;5052665;28;20040;-71
2022/11/24 01:22:48;;;;;;;14.57;3.22;;;;;;;;;;5051564;28;20056;-71
2022/11/24 01:25:14;;;;;;;12.35;2.70;;;;;;;;;;5052586;28;20025;-71
2022/11/24 01:27:39;;;;;;;11.88;2.65;;;;;;;;;;5052312;28;20074;-71
2022/11/24 01:30:06;;;;;;;14.15;2.95;;;;;;;;;;5052798;28;20060;-71
2022/11/24 01:32:32;;;;;;;15.57;3.22;;;;;;;;;;5052422;28;20400;-70
2022/11/24 01:34:58;;;;;;;13.18;2.67;;;;;;;;;;5052619;28;20108;-71
2022/11/24 01:37:24;;;;;;;10.80;2.80;;;;;;;;;;5052678;28;20032;-71
2022/11/24 01:39:49;;;;;;;12.70;2.78;;;;;;;;;;5052257;28;20017;-71
2022/11/24 01:42:14;;;;;;;14.82;2.88;;;;;;;;;;5052202;28;20677;-71
2022/11/24 01:44:41;;;;;;;15.20;2.70;;;;;;;;;;5051904;28;20036;-71
2022/11/24 01:47:25;;;;;;;12.40;2.55;;;;;;;;;;5052498;28;20021;-71
2022/11/24 01:49:54;;;;;;;11.98;2.35;;;;;;;;;;5052409;28;20055;-71
2022/11/24 01:52:33;;;;;;;14.48;2.83;;;;;;;;;;5052668;28;20477;-70
2022/11/24 01:55:08;;;;;;;15.05;2.97;;;;;;;;;;5052164;28;20029;-72
2022/11/24 01:57:45;;;;;;;14.68;2.72;;;;;;;;;;5051633;28;20043;-72
2022/11/24 02:00:12;;;;;;;16.73;3.33;;;;;;;;;;5051815;28;20029;-71
2022/11/24 02:02:38;;;;;;;16.48;3.05;;;;;;;;;;5052254;28;20473;-71
2022/11/24 02:05:27;;;;;;;14.73;2.97;;;;;;;;;;5050796;28;20032;-71
2022/11/24 02:07:55;;;;;;;16.00;2.80;;;;;;;;;;5052021;28;20025;-71
2022/11/24 02:10:22;;;;;;;11.20;2.65;;;;;;;;;;5052113;28;20051;-71
2022/11/24 02:12:52;;;;;;;13.52;2.80;;;;;;;;;;5051644;28;20083;-71
2022/11/24 02:15:19;;;;;;;14.52;3.20;;;;;;;;;;5050610;28;20436;-71
2022/11/24 02:17:44;;;;;;;12.50;2.83;;;;;;;;;;5051579;28;20055;-71
2022/11/24 02:20:11;;;;;;;11.25;2.70;;;;;;;;;;5050329;28;20037;-71
2022/11/24 02:22:52;;;;;;;12.00;3.10;;;;;;;;;;5050532;28;20032;-71
2022/11/24 02:25:35;;;;;;;9.02;2.35;;;;;;;;;;5051818;28;20032;-71
2022/11/24 02:28:05;;;;;;;11.75;3.00;;;;;;;;;;5050007;28;20388;-70
2022/11/24 02:30:31;;;;;;;13.68;2.90;;;;;;;;;;5051612;28;20061;-72
2022/11/24 02:32:57;;;;;;;12.88;2.25;;;;;;;;;;5051412;28;20433;-71
2022/11/24 02:35:25;;;;;;;10.70;2.70;;;;;;;;;;5051291;28;20480;-71
2022/11/24 02:37:51;;;;;;;12.57;2.80;;;;;;;;;;5051368;28;20098;-70
2022/11/24 02:40:23;;;;;;;13.27;2.78;;;;;;;;;;5051254;28;20423;-71
2022/11/24 02:42:52;;;;;;;13.35;2.30;;;;;;;;;;5051285;28;20029;-71
2022/11/24 02:45:18;;;;;;;12.70;2.60;;;;;;;;;;5051210;28;20154;-70
2022/11/24 02:47:44;;;;;;;10.25;2.60;;;;;;;;;;5051229;28;20103;-71
2022/11/24 02:50:10;;;;;;;11.32;2.25;;;;;;;;;;5051217;28;20013;-71
2022/11/24 02:52:35;;;;;;;13.88;2.53;;;;;;;;;;5051208;28;20380;-71
2022/11/24 02:55:01;;;;;;;12.07;2.80;;;;;;;;;;5050931;28;20032;-71
2022/11/24 02:57:26;;;;;;;12.98;2.70;;;;;;;;;;5050519;28;20041;-71
2022/11/24 02:59:51;;;;;;;14.75;2.67;;;;;;;;;;5051175;28;20601;-70
2022/11/24 03:02:17;;;;;;;11.07;2.08;;;;;;;;;;5051255;28;20031;-71
2022/11/24 03:04:43;;;;;;;9.32;2.47;;;;;;;;;;5050917;28;20436;-71
2022/11/24 03:07:09;;;;;;;10.20;2.67;;;;;;;;;;5050728;28;20029;-71
2022/11/24 03:09:34;;;;;;;9.60;2.33;;;;;;;;;;5050880;28;20043;-70
2022/11/24 03:11:59;;;;;;;11.80;2.47;;;;;;;;;;5050575;28;20029;-70
2022/11/24 03:14:25;;;;;;;9.82;2.30;;;;;;;;;;5050567;28;20057;-71
2022/11/24 03:16:50;;;;;;;8.45;2.45;;;;;;;;;;5050483;28;20025;-71
2022/11/24 03:19:16;;;;;;;11.88;2.40;;;;;;;;;;5050883;28;20411;-70
2022/11/24 03:21:41;;;;;;;13.32;2.60;;;;;;;;;;5050753;28;20083;-71
2022/11/24 03:24:06;;;;;;;9.68;2.30;;;;;;;;;;5049458;28;20475;-71
2022/11/24 03:26:33;;;;;;;9.27;2.25;;;;;;;;;;5050343;28;20029;-70
2022/11/24 03:29:01;;;;;;;9.52;2.40;;;;;;;;;;5050243;28;20588;-71
2022/11/24 03:31:27;;;;;;;11.10;2.35;;;;;;;;;;5050256;28;20531;-70
2022/11/24 03:33:52;;;;;;;12.40;2.92;;;;;;;;;;5050482;28;20056;-70
2022/11/24 03:36:17;;;;;;;10.00;2.33;;;;;;;;;;5050239;28;20021;-70
2022/11/24 03:38:43;;;;;;;9.20;2.35;;;;;;;;;;5049983;28;20068;-71
2022/11/24 03:41:09;;;;;;;10.10;2.38;;;;;;;;;;5048762;28;20044;-71
2022/11/24 03:43:34;;;;;;;10.40;2.50;;;;;;;;;;5049900;28;20466;-71
2022/11/24 03:46:00;;;;;;;10.65;2.13;;;;;;;;;;5049859;28;20025;-70
2022/11/24 03:48:25;;;;;;;10.45;2.40;;;;;;;;;;5050040;28;20021;-71
2022/11/24 03:50:55;;;;;;;11.10;2.30;;;;;;;;;;5050066;28;20583;-70
2022/11/24 03:53:21;;;;;;;11.95;2.28;;;;;;;;;;5050338;28;20021;-71
2022/11/24 03:55:47;;;;;;;9.88;2.33;;;;;;;;;;5049803;28;20455;-70
2022/11/24 03:58:12;;;;;;;11.00;2.20;;;;;;;;;;5049663;28;20024;-70
2022/11/24 04:00:38;;;;;;;10.48;2.10;;;;;;;;;;5049638;28;20398;-70
2022/11/24 04:03:03;;;;;;;9.35;1.98;;;;;;;;;;5049851;28;20029;-71
2022/11/24 04:05:29;;;;;;;9.80;2.30;;;;;;;;;;5049985;28;20029;-71
2022/11/24 04:07:56;;;;;;;7.22;1.75;;;;;;;;;;5049868;28;20020;-70
2022/11/24 04:10:22;;;;;;;8.13;1.70;;;;;;;;;;5049850;28;20025;-71
2022/11/24 04:12:47;;;;;;;10.30;2.17;;;;;;;;;;5049570;28;20032;-71
2022/11/24 04:15:18;;;;;;;6.03;1.80;;;;;;;;;;5050035;28;20142;-71
2022/11/24 04:17:45;;;;;;;8.02;2.00;;;;;;;;;;5048543;28;20033;-70
2022/11/24 04:20:11;;;;;;;10.50;2.25;;;;;;;;;;5049399;28;20087;-71
2022/11/24 04:22:37;;;;;;;6.63;1.77;;;;;;;;;;5049449;28;20172;-71
2022/11/24 04:25:03;;;;;;;9.60;1.90;;;;;;;;;;5049816;28;20089;-71
2022/11/24 04:27:29;;;;;;;6.53;1.90;;;;;;;;;;5048916;28;20029;-71
2022/11/24 04:29:54;;;;;;;5.45;1.80;;;;;;;;;;5049693;28;20438;-71
2022/11/24 04:32:19;;;;;;;8.23;2.00;;;;;;;;;;5049444;28;20459;-70
2022/11/24 04:34:45;;;;;;;9.98;2.00;;;;;;;;;;5049357;28;20444;-71
2022/11/24 04:37:10;;;;;;;10.60;2.15;;;;;;;;;;5049066;28;20024;-71
2022/11/24 04:39:36;;;;;;;7.20;1.77;;;;;;;;;;5049282;28;20021;-71
2022/11/24 04:42:01;;;;;;;9.98;2.17;;;;;;;;;;5049131;28;20083;-71
2022/11/24 04:44:27;;;;;;;8.88;2.17;;;;;;;;;;5049258;28;20021;-71
2022/11/24 04:46:52;;;;;;;9.05;2.03;;;;;;;;;;5049058;28;20106;-70
2022/11/24 04:49:18;;;;;;;9.88;1.98;;;;;;;;;;5049680;28;20070;-71
2022/11/24 04:51:43;;;;;;;7.53;1.98;;;;;;;;;;5050854;28;20477;-72
2022/11/24 04:54:11;;;;;;;9.63;2.17;;;;;;;;;;5053412;28;20108;-70
2022/11/24 04:56:37;;;;;;;8.38;1.98;;;;;;;;;;5052962;28;20128;-70
2022/11/24 04:59:02;;;;;;;12.90;2.53;;;;;;;;;;5071330;28;20108;-70
2022/11/24 05:01:28;;;;;;;10.13;2.20;;;;;;;;;;5073296;28;20102;-71
2022/11/24 05:03:54;;;;;;;9.77;2.30;;;;;;;;;;5073465;28;20024;-71
2022/11/24 05:06:19;;;;;;;8.15;2.33;;;;;;;;;;5073296;28;20139;-70
2022/11/24 05:08:51;;;;;;;8.77;1.85;;;;;;;;;;5073175;28;20593;-70
2022/11/24 05:11:18;;;;;;;8.63;2.20;;;;;;;;;;5073043;28;20035;-70
2022/11/24 05:13:44;;;;;;;7.70;1.90;;;;;;;;;;5072652;28;20037;-69
2022/11/24 05:16:09;;;;;;;11.45;2.35;;;;;;;;;;5071939;28;20032;-70
2022/11/24 05:18:36;;;;;;;11.48;2.58;;;;;;;;;;5072991;28;20025;-70
2022/11/24 05:21:02;;;;;;;5.93;2.15;;;;;;;;;;5073028;28;20024;-73
2022/11/24 05:23:28;;;;;;;9.48;2.25;;;;;;;;;;5073143;28;20032;-72
2022/11/24 05:25:58;;;;;;;6.88;1.90;;;;;;;;;;5072958;28;20016;-73
2022/11/24 05:28:23;;;;;;;8.10;2.00;;;;;;;;;;5072267;28;20017;-72
2022/11/24 05:30:49;;;;;;;8.43;1.88;;;;;;;;;;5072777;28;20054;-71
2022/11/24 05:33:17;;;;;;;7.70;2.25;;;;;;;;;;5072480;28;20402;-71
2022/11/24 05:35:43;;;;;;;9.05;2.30;;;;;;;;;;5072653;28;20502;-71
2022/11/24 05:38:09;;;;;;;9.75;2.28;;;;;;;;;;5072576;28;20039;-71
2022/11/24 05:40:35;;;;;;;9.10;1.98;;;;;;;;;;5072668;28;20036;-71
2022/11/24 05:43:00;;;;;;;4.60;1.80;;;;;;;;;;5071898;28;20159;-71
2022/11/24 05:45:25;;;;;;;8.35;1.98;;;;;;;;;;5072602;28;20028;-71
2022/11/24 05:47:52;;;;;;;6.00;2.10;;;;;;;;;;5071973;28;20055;-71
2022/11/24 05:50:19;;;;;;;5.07;1.80;;;;;;;;;;5072411;28;20029;-71
2022/11/24 05:52:44;;;;;;;7.72;2.00;;;;;;;;;;5072339;28;20028;-71
2022/11/24 05:55:11;;;;;;;6.38;1.83;;;;;;;;;;5072425;28;20039;-72
2022/11/24 05:57:36;;;;;;;8.15;2.10;;;;;;;;;;5071860;28;20032;-70
2022/11/24 06:00:06;;;;;;;8.45;2.88;;;;;;;;;;5072230;28;20032;-71
2022/11/24 06:02:31;;;;;;;11.03;2.50;;;;;;;;;;5071634;28;20520;-70
2022/11/24 06:04:57;;;;;;;7.68;2.33;;;;;;;;;;5072172;28;20098;-71
2022/11/24 06:07:22;;;;;;;6.13;2.03;;;;;;;;;;5071525;28;20027;-70
2022/11/24 06:09:48;;;;;;;6.05;2.22;;;;;;;;;;5072118;28;20078;-71
2022/11/24 06:12:13;;;;;;;8.32;3.00;;;;;;;;;;5071734;28;20016;-72
2022/11/24 06:14:39;;;;;;;10.50;2.60;;;;;;;;;;5072126;28;20540;-72
2022/11/24 06:17:05;;;;;;;6.80;2.50;;;;;;;;;;5071996;28;20031;-71
2022/11/24 06:19:30;;;;;;;8.85;2.60;;;;;;;;;;5071633;28;20025;-72
2022/11/24 06:21:56;;;;;;;8.57;2.75;;;;;;;;;;5071650;28;20572;-72
2022/11/24 06:24:21;;;;;;;8.18;3.00;;;;;;;;;;5071516;28;20028;-71
2022/11/24 06:26:47;;;;;;;11.00;2.80;;;;;;;;;;5071735;28;20052;-71
2022/11/24 06:29:12;;;;;;;9.20;3.40;;;;;;;;;;5071378;28;20028;-71
2022/11/24 06:31:37;;;;;;;9.38;3.97;;;;;;;;;;5071857;28;20455;-72
2022/11/24 06:34:10;;;;;;;10.98;3.78;;;;;;;;;;5071361;28;20052;-72
2022/11/24 06:36:37;;;;;;;10.70;3.55;;;;;;;;;;5071657;28;20514;-72
2022/11/24 06:39:03;;;;;;;12.70;3.55;;;;;;;;;;5070983;28;20021;-71
2022/11/24 06:41:29;;;;;;;8.20;3.95;;;;;;;;;;5071373;28;20458;-71
2022/11/24 06:43:54;;;;;;;10.90;3.50;;;;;;;;;;5070966;28;20024;-71
2022/11/24 06:46:20;;;;;;;11.70;3.90;;;;;;;;;;5070007;28;20029;-71
2022/11/24 06:48:46;;;;;;;10.10;4.40;;;;;;;;;;5071033;28;20032;-70
2022/11/24 06:51:12;;;;;;;15.90;6.28;;;;;;;;;;5071542;28;20033;-70
2022/11/24 06:53:39;;;;;;;16.13;5.85;;;;;;;;;;5071118;28;20094;-71
2022/11/24 06:56:07;;;;;;;13.60;4.95;;;;;;;;;;5071053;28;20098;-71
2022/11/24 06:58:32;;;;;;;15.45;5.45;;;;;;;;;;5070406;28;20025;-71
2022/11/24 07:00:58;;;;;;;14.88;4.43;;;;;;;;;;5070995;28;20476;-71
2022/11/24 07:03:23;;;;;;;14.13;4.47;;;;;;;;;;5070927;28;20499;-72
2022/11/24 07:05:54;;;;;;;13.82;4.53;;;;;;;;;;5071163;28;20020;-71
2022/11/24 07:08:19;;;;;;;13.07;4.30;;;;;;;;;;5069575;28;20476;-73
2022/11/24 07:10:44;;;;;;;10.10;3.80;;;;;;;;;;5070835;28;20038;-72
2022/11/24 07:13:10;;;;;;;10.68;3.67;;;;;;;;;;5070013;28;20601;-71
2022/11/24 07:15:36;;;;;;;16.10;3.80;;;;;;;;;;5070164;28;20017;-71
2022/11/24 07:18:01;;;;;;;11.82;4.25;;;;;;;;;;5070369;28;20116;-71
2022/11/24 07:20:26;;;;;;;13.80;3.70;;;;;;;;;;5070690;28;20090;-71
2022/11/24 07:22:56;;;;;;;13.35;4.10;;;;;;;;;;5070479;28;20033;-72
2022/11/24 07:25:22;;;;;;;14.93;4.50;;;;;;;;;;5070903;28;20032;-71
2022/11/24 07:27:47;;;;;;;15.73;4.40;;;;;;;;;;5069978;28;20507;-70
2022/11/24 07:30:13;;;;;;;14.70;4.82;;;;;;;;;;5070562;28;20025;-71
2022/11/24 07:32:38;;;;;;;14.57;4.88;;;;;;;;;;5070240;28;20121;-71
2022/11/24 07:35:04;;;;;;;14.40;5.15;;;;;;;;;;5070022;28;20021;-71
2022/11/24 07:37:29;;;;;;;15.90;5.68;;;;;;;;;;5070374;28;20047;-71
2022/11/24 07:39:55;;;;;;;14.00;5.22;;;;;;;;;;5070037;28;20031;-70
2022/11/24 07:42:20;;;;;;;16.38;5.20;;;;;;;;;;5070094;28;20039;-71
2022/11/24 07:44:46;;;;;;;14.35;5.25;;;;;;;;;;5070276;28;20039;-70
2022/11/24 07:47:11;;;;;;;13.68;5.43;;;;;;;;;;5070220;28;20104;-70
2022/11/24 07:49:36;;;;;;;13.60;5.50;;;;;;;;;;5069678;28;20112;-71
2022/11/24 07:52:03;;;;;;;18.02;5.93;;;;;;;;;;5070056;28;20046;-71
2022/11/24 07:54:28;;;;;;;20.77;7.43;;;;;;;;;;5069955;28;20052;-72
2022/11/24 07:56:54;;;;;;;17.15;9.57;;;;;;;;;;5069983;28;20083;-70
2022/11/24 07:59:19;;;;;;;20.88;8.90;;;;;;;;;;5069478;28;20024;-70
2022/11/24 08:01:45;;;;;;;19.58;8.32;;;;;;;;;;5069879;28;20021;-71
2022/11/24 08:04:12;;;;;;;15.07;7.20;;;;;;;;;;5069725;28;20044;-73
2022/11/24 08:06:37;;;;;;;16.50;6.90;;;;;;;;;;5069809;28;20086;-71
2022/11/24 08:09:02;;;;;;;14.57;5.70;;;;;;;;;;5069466;28;20025;-74
2022/11/24 08:11:30;;;;;;;15.85;4.22;;;;;;;;;;5069505;28;20534;-74
2022/11/24 08:13:55;;;;;;;15.75;3.90;;;;;;;;;;5069371;28;20541;-74
2022/11/24 08:16:21;;;;;;;10.82;3.53;;;;;;;;;;5069805;28;20036;-74
2022/11/24 08:18:51;;;;;;;16.73;3.25;;;;;;;;;;5069266;28;20024;-70
2022/11/24 08:21:17;;;;;;;17.08;3.92;;;;;;;;;;5069711;28;20096;-72
2022/11/24 08:23:42;;;;;;;14.73;3.40;;;;;;;;;;5069240;28;20033;-70
2022/11/24 08:26:14;;;;;;;13.98;3.30;;;;;;;;;;5069460;28;20021;-70
2022/11/24 08:28:40;;;;;;;11.02;3.15;;;;;;;;;;5068779;28;20043;-71
2022/11/24 08:31:08;;;;;;;12.70;3.10;;;;;;;;;;5069662;28;20024;-71
2022/11/24 08:33:35;;;;;;;14.75;3.42;;;;;;;;;;5069522;28;20031;-71
2022/11/24 08:36:05;;;;;;;11.50;3.30;;;;;;;;;;5069462;28;20039;-68
2022/11/24 08:38:31;;;;;;;11.57;3.35;;;;;;;;;;5069638;28;20025;-76
2022/11/24 08:41:05;;;;;;;11.10;3.83;;;;;;;;;;5069511;28;20047;-77
2022/11/24 08:43:30;;;;;;;11.88;3.00;;;;;;;;;;5070498;28;20681;-79
2022/11/24 08:46:01;;;;;;;12.48;3.80;;;;;;;;;;5072550;28;20052;-75
2022/11/24 08:48:27;;;;;;;13.70;3.38;;;;;;;;;;5069846;28;20071;-75
2022/11/24 08:50:53;;;;;;;19.98;4.20;;;;;;;;;;5070614;28;20031;-74
2022/11/24 08:53:18;;;;;;;9.50;3.58;;;;;;;;;;5069004;28;20028;-75
2022/11/24 08:55:44;;;;;;;14.15;4.05;;;;;;;;;;5071647;28;20202;-73
2022/11/24 08:58:09;;;;;;;13.73;3.75;;;;;;;;;;5069896;28;20029;-77
2022/11/24 09:00:35;;;;;;;17.15;4.57;;;;;;;;;;5074174;28;20032;-74
2022/11/24 09:03:00;;;;;;;15.85;4.60;;;;;;;;;;5069522;28;20112;-75
2022/11/24 09:05:26;;;;;;;12.85;5.28;;;;;;;;;;5071978;28;20062;-74
2022/11/24 09:07:51;;;;;;;16.40;5.30;;;;;;;;;;5070169;28;20103;-76
2022/11/24 09:10:17;;;;;;;13.60;5.97;;;;;;;;;;5069181;28;20131;-76
2022/11/24 09:12:46;;;;;;;14.18;6.60;;;;;;;;;;5060104;28;20533;-75
2022/11/24 09:15:12;;;;;;;17.75;6.90;;;;;;;;;;5058253;28;20321;-77
2022/11/24 09:17:38;;;;;;;15.82;6.70;;;;;;;;;;5070006;28;20103;-73
2022/11/24 09:20:04;;;;;;;15.43;6.03;;;;;;;;;;5066195;28;20108;-74
2022/11/24 09:22:30;;;;;;;13.80;4.97;;;;;;;;;;5063395;28;20033;-74
2022/11/24 09:24:56;;;;;;;14.63;4.40;;;;;;;;;;5070979;28;20606;-73
2022/11/24 09:27:21;;;;;;;18.85;4.25;;;;;;;;;;5069114;28;20086;-74
2022/11/24 09:29:48;;;;;;;15.55;3.95;;;;;;;;;;5064237;28;20078;-73
2022/11/24 09:32:14;;;;;;;16.48;3.97;;;;;;;;;;5071446;28;20029;-74
2022/11/24 09:34:39;;;;;;;26.88;4.50;;;;;;;;;;5068758;28;20029;-75
2022/11/24 09:37:05;;;;;;;20.30;3.65;;;;;;;;;;5069712;28;20036;-74
2022/11/24 09:39:32;;;;;;;9.82;3.40;;;;;;;;;;5074633;28;20025;-75
2022/11/24 09:42:18;;;;;;;14.63;3.42;;;;;;;;;;5074378;28;20025;-74
2022/11/24 09:44:58;;;;;;;11.68;3.35;;;;;;;;;;5078162;28;20035;-74
2022/11/24 09:47:34;;;;;;;17.52;3.10;;;;;;;;;;5072106;28;20029;-75
2022/11/24 09:50:23;;;;;;;11.32;3.17;;;;;;;;;;5071737;28;20519;-74
2022/11/24 09:53:17;;;;;;;11.27;2.90;;;;;;;;;;5069292;28;20040;-74
2022/11/24 09:55:47;;;;;;;11.80;2.95;;;;;;;;;;5062072;28;20481;-76
2022/11/24 09:58:48;;;;;;;10.55;3.38;;;;;;;;;;5065142;28;20670;-76
2022/11/24 10:01:18;;;;;;;10.33;3.23;;;;;;;;;;5084946;28;20048;-76
2022/11/24 10:03:50;;;;;;;8.90;2.78;;;;;;;;;;5080110;28;20032;-79
2022/11/24 10:06:42;;;;;;;12.55;3.60;;;;;;;;;;5071332;28;20020;-78
2022/11/24 10:09:48;;;;;;;9.68;3.10;;;;;;;;;;5074357;28;20032;-77
2022/11/24 10:12:51;;;;;;;15.50;3.33;;;;;;;;;;5066892;28;20021;-77
2022/11/24 10:15:24;;;;;;;13.75;3.22;;;;;;;;;;5051422;28;20040;-77
2022/11/24 10:18:14;;;;;;;9.38;3.10;;;;;;;;;;5048776;28;20032;-77
2022/11/24 10:20:57;;;;;;;11.20;3.42;;;;;;;;;;5049879;28;20040;-77
2022/11/24 10:23:59;;;;;;;9.48;3.10;;;;;;;;;;5052103;28;20108;-77
2022/11/24 10:26:24;;;;;;;11.27;3.10;;;;;;;;;;5053491;28;20698;-78
2022/11/24 10:28:54;;;;;;;12.88;3.50;;;;;;;;;;5053993;28;20108;-78
2022/11/24 10:31:32;;;;;;;13.37;3.40;;;;;;;;;;5069738;28;20028;-77
2022/11/24 10:34:08;;;;;;;12.40;2.92;;;;;;;;;;5071222;28;20192;-74
2022/11/24 10:36:59;;;;;;;14.73;3.25;;;;;;;;;;5072673;28;20032;-74
2022/11/24 10:39:45;;;;;;;9.85;3.22;;;;;;;;;;5065013;28;20017;-75
2022/11/24 10:42:26;;;;;;;13.00;3.08;;;;;;;;;;5050826;28;20025;-74
2022/11/24 10:45:10;;;;;;;13.68;3.40;;;;;;;;;;5050965;28;20021;-74
2022/11/24 10:47:35;;;;;;;11.07;3.40;;;;;;;;;;5050746;28;20025;-74
2022/11/24 10:50:18;;;;;;;15.43;3.80;;;;;;;;;;5049907;28;20040;-74
2022/11/24 10:52:55;;;;;;;13.80;3.30;;;;;;;;;;5067582;28;20387;-77
2022/11/24 10:55:21;;;;;;;19.58;3.97;;;;;;;;;;5064575;28;20120;-78
2022/11/24 10:57:46;;;;;;;15.48;3.70;;;;;;;;;;5052731;28;20064;-79
2022/11/24 11:00:18;;;;;;;16.80;4.00;;;;;;;;;;5051317;28;20032;-78
2022/11/24 11:02:44;;;;;;;16.23;4.28;;;;;;;;;;5047990;28;20546;-78
2022/11/24 11:05:31;;;;;;;14.52;3.80;;;;;;;;;;5049537;28;20028;-78
2022/11/24 11:08:22;;;;;;;11.82;4.00;;;;;;;;;;5050176;28;20393;-79
2022/11/24 11:10:49;;;;;;;;;;;;;;;;;;5065686;28;20789;-78
2022/11/24 11:13:27;;;;;;;15.15;3.13;;;;;;;;;;5050073;28;19929;-79
2022/11/24 11:15:53;;;;;;;11.80;2.95;;;;;;;;;;5050165;28;20032;-78
2022/11/24 11:18:20;;;;;;;9.85;2.70;;;;;;;;;;5050634;28;20032;-79
2022/11/24 11:20:56;;;;;;;11.30;2.72;;;;;;;;;;5049773;28;20025;-79
2022/11/24 11:23:27;;;;;;;13.88;2.97;;;;;;;;;;5050202;28;20469;-80
2022/11/24 11:26:18;;;;;;;13.32;3.10;;;;;;;;;;5050088;28;20070;-80
2022/11/24 11:29:13;;;;;;;18.42;2.90;;;;;;;;;;5050170;28;20090;-78
2022/11/24 11:31:39;;;;;;;10.73;2.70;;;;;;;;;;5048647;28;20040;-80
2022/11/24 11:34:08;;;;;;;11.05;2.80;;;;;;;;;;5050280;28;20021;-80
2022/11/24 11:36:35;;;;;;;13.43;2.88;;;;;;;;;;5050115;28;20025;-79
2022/11/24 11:39:02;;;;;;;13.75;2.70;;;;;;;;;;5050197;28;20047;-80
2022/11/24 11:41:33;;;;;;;12.48;2.67;;;;;;;;;;5049714;28;20065;-80
2022/11/24 11:44:34;;;;;;;8.85;2.47;;;;;;;;;;5049878;28;20029;-79
2022/11/24 11:47:11;;;;;;;12.30;2.42;;;;;;;;;;5049970;28;20044;-78
2022/11/24 11:49:38;;;;;;;12.90;2.70;;;;;;;;;;5065510;28;20087;-78
2022/11/24 11:52:38;;;;;;;13.00;2.58;;;;;;;;;;5065441;28;20029;-77
2022/11/24 11:55:28;;;;;;;10.30;2.47;;;;;;;;;;5049941;28;20033;-80
2022/11/24 11:58:32;;;;;;;11.38;2.42;;;;;;;;;;5049469;28;20037;-78
2022/11/24 12:01:20;;;;;;;7.25;1.70;;;;;;;;;;5036606;28;20045;-79
2022/11/24 12:04:08;;;;;;;10.18;2.10;;;;;;;;;;5049392;28;20024;-80
2022/11/24 12:07:07;;;;;;;10.50;2.20;;;;;;;;;;5049567;28;20534;-77
2022/11/24 12:09:40;;;;;;;10.07;2.03;;;;;;;;;;5049663;28;20396;-79
2022/11/24 12:12:33;;;;;;;12.10;2.13;;;;;;;;;;5064163;28;20124;-78
2022/11/24 12:15:17;;;;;;;9.63;1.83;;;;;;;;;;5049484;28;20040;-78
2022/11/24 12:18:05;;;;;;;8.85;1.92;;;;;;;;;;5049389;28;20029;-78
2022/11/24 12:20:43;;;;;;;7.03;1.77;;;;;;;;;;5050626;28;20735;-78
2022/11/24 12:23:42;;;;;;;9.57;2.20;;;;;;;;;;5049343;28;20139;-78
2022/11/24 12:26:19;;;;;;;9.95;1.98;;;;;;;;;;5049433;28;20594;-80
2022/11/24 12:29:22;;;;;;;8.70;1.67;;;;;;;;;;5049263;28;20032;-78
2022/11/24 12:32:25;;;;;;;11.85;2.10;;;;;;;;;;5048944;28;20037;-78
2022/11/24 12:35:02;;;;;;;9.43;1.85;;;;;;;;;;5049116;28;20025;-81
2022/11/24 12:38:05;;;;;;;7.80;1.50;;;;;;;;;;5048986;28;20025;-78
2022/11/24 12:40:36;;;;;;;11.00;2.10;;;;;;;;;;5064431;28;20221;-78
2022/11/24 12:43:47;;;;;;;7.82;1.70;;;;;;;;;;5048776;28;20025;-78
2022/11/24 12:46:24;;;;;;;10.73;2.03;;;;;;;;;;5047090;28;20382;-77
2022/11/24 12:48:50;;;;;;;11.48;2.63;;;;;;;;;;5049158;28;20118;-76
2022/11/24 12:51:22;;;;;;;9.25;1.80;;;;;;;;;;5053655;28;20617;-76
2022/11/24 12:53:51;;;;;;;9.38;1.80;;;;;;;;;;5061850;28;20029;-72
2022/11/24 12:56:24;;;;;;;9.13;2.42;;;;;;;;;;5061098;28;20103;-82
2022/11/24 12:59:00;;;;;;;10.82;2.15;;;;;;;;;;5049274;28;20048;-83
2022/11/24 13:01:42;;;;;;;11.90;1.98;;;;;;;;;;5069129;28;20032;-71
2022/11/24 13:04:21;;;;;;;15.10;2.45;;;;;;;;;;5068659;28;20400;-71
2022/11/24 13:07:01;;;;;;;11.77;1.95;;;;;;;;;;5068565;28;20035;-75
2022/11/24 13:09:26;;;;;;;13.20;2.20;;;;;;;;;;5051146;28;20017;-75
2022/11/24 13:12:04;;;;;;;9.23;2.10;;;;;;;;;;5050529;28;20021;-78
2022/11/24 13:14:31;;;;;;;13.20;2.33;;;;;;;;;;5052403;28;20025;-76
2022/11/24 13:17:00;;;;;;;13.18;2.00;;;;;;;;;;5054527;28;20078;-83
2022/11/24 13:19:29;;;;;;;7.10;1.83;;;;;;;;;;5056216;28;20016;-76
2022/11/24 13:22:06;;;;;;;13.05;2.28;;;;;;;;;;5053562;28;20638;-79
2022/11/24 13:24:37;;;;;;;17.50;2.42;;;;;;;;;;5052635;28;20029;-83
2022/11/24 13:27:14;;;;;;;14.35;2.97;;;;;;;;;;5054391;28;20028;-81
2022/11/24 13:29:42;;;;;;;14.65;2.30;;;;;;;;;;5057399;28;20048;-84
2022/11/24 13:32:07;;;;;;;15.05;2.40;;;;;;;;;;5053988;28;20063;-85
2022/11/24 13:34:39;;;;;;;18.30;2.92;;;;;;;;;;5052781;28;20055;-83
2022/11/24 13:37:26;;;;;;;13.15;2.50;;;;;;;;;;5053804;28;20025;-78
2022/11/24 13:39:52;;;;;;;13.30;2.40;;;;;;;;;;5052519;28;20025;-76
2022/11/24 13:42:19;;;;;;;15.65;2.30;;;;;;;;;;5051760;28;20120;-86
2022/11/24 13:44:49;;;;;;;12.20;2.35;;;;;;;;;;5052660;28;20108;-75
2022/11/24 13:47:34;;;;;;;11.27;1.95;;;;;;;;;;5052291;28;20476;-81
2022/11/24 13:50:22;;;;;;;11.82;1.95;;;;;;;;;;5052408;28;20028;-75
2022/11/24 13:53:05;;;;;;;14.68;2.10;;;;;;;;;;5051888;28;20102;-76
2022/11/24 13:55:38;;;;;;;11.15;2.03;;;;;;;;;;5052176;28;20060;-77
2022/11/24 13:58:10;;;;;;;10.93;2.03;;;;;;;;;;5051335;28;20382;-77
2022/11/24 14:00:57;;;;;;;14.13;2.40;;;;;;;;;;5069148;28;20040;-76
2022/11/24 14:03:30;;;;;;;10.10;2.15;;;;;;;;;;5074164;28;20028;-77
2022/11/24 14:05:56;;;;;;;7.78;1.92;;;;;;;;;;5075146;28;20099;-77
2022/11/24 14:08:34;;;;;;;15.52;2.63;;;;;;;;;;5070489;28;20024;-77
2022/11/24 14:11:01;;;;;;;8.73;2.10;;;;;;;;;;5072118;28;20428;-81
2022/11/24 14:13:29;;;;;;;9.65;1.92;;;;;;;;;;5077161;28;20033;-78
2022/11/24 14:16:07;;;;;;;10.52;1.73;;;;;;;;;;5072572;28;20111;-79
2022/11/24 14:18:37;;;;;;;10.05;2.08;;;;;;;;;;5072043;28;20024;-85
2022/11/24 14:21:23;;;;;;;11.43;2.25;;;;;;;;;;5073584;28;20038;-74
2022/11/24 14:23:58;;;;;;;12.82;2.30;;;;;;;;;;5072856;28;20054;-83
2022/11/24 14:26:32;;;;;;;13.40;2.30;;;;;;;;;;5071774;28;20508;-81
2022/11/24 14:29:13;;;;;;;9.95;2.15;;;;;;;;;;5070962;28;20027;-76
2022/11/24 14:31:39;;;;;;;11.43;2.10;;;;;;;;;;5071141;28;20076;-80
2022/11/24 14:34:11;;;;;;;15.77;2.20;;;;;;;;;;5071963;28;20598;-75
2022/11/24 14:36:39;;;;;;;11.40;2.30;;;;;;;;;;5076286;28;20028;-78
2022/11/24 14:39:05;;;;;;;11.88;2.13;;;;;;;;;;5069838;28;20039;-80
2022/11/24 14:41:32;;;;;;;12.23;2.00;;;;;;;;;;5071196;28;20040;-77
2022/11/24 14:44:21;;;;;;;13.77;2.40;;;;;;;;;;5071039;28;20024;-81
2022/11/24 14:46:47;;;;;;;11.80;2.45;;;;;;;;;;5072247;28;20515;-77
2022/11/24 14:49:18;;;;;;;16.27;2.80;;;;;;;;;;5073588;28;20052;-78
2022/11/24 14:51:48;;;;;;;12.80;2.85;;;;;;;;;;5078024;28;20380;-74
2022/11/24 14:54:17;;;;;;;10.93;2.40;;;;;;;;;;5076402;28;20040;-79